sensor_id;sensor_type;location;lat;lon;timestamp;P1;durP1;ratioP1;P2;durP2;ratioP2
33810;SDS011;20119;48.334;16.206;2024-01-30T00:03:45;34.92;;;22.05;;
33810;SDS011;20119;48.334;16.206;2024-01-30T00:06:12;34.63;;;20.70;;
33810;SDS011;20119;48.334;16.206;2024-01-30T00:11:17;33.42;;;21.20;;
33810;SDS011;20119;48.334;16.206;2024-01-30T00:13:44;32.42;;;20.77;;
33810;SDS011;20119;48.334;16.206;2024-01-30T00:16:19;34.67;;;20.75;;
33810;SDS011;20119;48.334;16.206;2024-01-30T00:18:49;31.13;;;21.25;;
33810;SDS011;20119;48.334;16.206;2024-01-30T00:26:20;34.58;;;21.08;;
33810;SDS011;20119;48.334;16.206;2024-01-30T00:28:47;33.50;;;21.30;;
33810;SDS011;20119;48.334;16.206;2024-01-30T00:31:14;32.08;;;21.73;;
33810;SDS011;20119;48.334;16.206;2024-01-30T00:33:41;32.25;;;20.88;;
33810;SDS011;20119;48.334;16.206;2024-01-30T00:36:09;35.20;;;21.63;;
33810;SDS011;20119;48.334;16.206;2024-01-30T00:41:12;33.60;;;20.88;;
33810;SDS011;20119;48.334;16.206;2024-01-30T00:43:41;30.77;;;21.65;;
33810;SDS011;20119;48.334;16.206;2024-01-30T00:48:44;33.22;;;22.52;;
33810;SDS011;20119;48.334;16.206;2024-01-30T00:51:11;32.60;;;21.80;;
33810;SDS011;20119;48.334;16.206;2024-01-30T00:53:38;36.03;;;23.40;;
33810;SDS011;20119;48.334;16.206;2024-01-30T00:56:06;33.70;;;22.02;;
33810;SDS011;20119;48.334;16.206;2024-01-30T00:58:34;35.65;;;22.35;;
33810;SDS011;20119;48.334;16.206;2024-01-30T01:06:14;31.67;;;21.95;;
33810;SDS011;20119;48.334;16.206;2024-01-30T01:08:41;33.42;;;22.80;;
33810;SDS011;20119;48.334;16.206;2024-01-30T01:11:08;33.67;;;22.33;;
33810;SDS011;20119;48.334;16.206;2024-01-30T01:18:47;36.10;;;23.98;;
33810;SDS011;20119;48.334;16.206;2024-01-30T01:23:51;34.35;;;22.75;;
33810;SDS011;20119;48.334;16.206;2024-01-30T01:28:55;32.45;;;22.92;;
33810;SDS011;20119;48.334;16.206;2024-01-30T01:31:22;36.42;;;23.48;;
33810;SDS011;20119;48.334;16.206;2024-01-30T01:33:49;32.83;;;22.05;;
33810;SDS011;20119;48.334;16.206;2024-01-30T01:36:17;36.20;;;23.13;;
33810;SDS011;20119;48.334;16.206;2024-01-30T01:41:21;34.88;;;22.73;;
33810;SDS011;20119;48.334;16.206;2024-01-30T01:46:26;33.25;;;23.83;;
33810;SDS011;20119;48.334;16.206;2024-01-30T01:48:53;38.47;;;24.97;;
33810;SDS011;20119;48.334;16.206;2024-01-30T01:51:21;36.58;;;24.65;;
33810;SDS011;20119;48.334;16.206;2024-01-30T01:56:26;36.78;;;25.60;;
33810;SDS011;20119;48.334;16.206;2024-01-30T01:58:54;37.67;;;24.75;;
33810;SDS011;20119;48.334;16.206;2024-01-30T02:01:21;37.53;;;24.23;;
33810;SDS011;20119;48.334;16.206;2024-01-30T02:03:50;36.35;;;24.80;;
33810;SDS011;20119;48.334;16.206;2024-01-30T02:08:53;38.17;;;24.48;;
33810;SDS011;20119;48.334;16.206;2024-01-30T02:13:52;38.17;;;25.77;;
33810;SDS011;20119;48.334;16.206;2024-01-30T02:16:19;39.15;;;25.98;;
33810;SDS011;20119;48.334;16.206;2024-01-30T02:21:23;39.85;;;26.58;;
33810;SDS011;20119;48.334;16.206;2024-01-30T02:23:51;39.75;;;26.60;;
33810;SDS011;20119;48.334;16.206;2024-01-30T02:34:06;47.22;;;28.85;;
33810;SDS011;20119;48.334;16.206;2024-01-30T02:36:35;41.17;;;27.60;;
33810;SDS011;20119;48.334;16.206;2024-01-30T02:41:38;41.08;;;27.00;;
33810;SDS011;20119;48.334;16.206;2024-01-30T02:44:05;40.40;;;27.15;;
33810;SDS011;20119;48.334;16.206;2024-01-30T02:46:32;43.95;;;28.25;;
33810;SDS011;20119;48.334;16.206;2024-01-30T02:51:37;41.85;;;27.58;;
33810;SDS011;20119;48.334;16.206;2024-01-30T02:54:05;42.43;;;29.37;;
33810;SDS011;20119;48.334;16.206;2024-01-30T02:56:32;45.80;;;29.15;;
33810;SDS011;20119;48.334;16.206;2024-01-30T03:04:05;44.20;;;28.70;;
33810;SDS011;20119;48.334;16.206;2024-01-30T03:06:32;45.90;;;28.70;;
33810;SDS011;20119;48.334;16.206;2024-01-30T03:14:12;44.58;;;29.05;;
33810;SDS011;20119;48.334;16.206;2024-01-30T03:16:39;45.80;;;29.70;;
33810;SDS011;20119;48.334;16.206;2024-01-30T03:19:07;46.55;;;29.95;;
33810;SDS011;20119;48.334;16.206;2024-01-30T03:21:34;46.72;;;30.10;;
33810;SDS011;20119;48.334;16.206;2024-01-30T03:24:01;45.45;;;30.33;;
33810;SDS011;20119;48.334;16.206;2024-01-30T03:26:29;46.70;;;30.65;;
33810;SDS011;20119;48.334;16.206;2024-01-30T03:49:44;47.95;;;31.67;;
33810;SDS011;20119;48.334;16.206;2024-01-30T03:54:47;49.17;;;31.58;;
33810;SDS011;20119;48.334;16.206;2024-01-30T03:57:14;45.45;;;30.52;;
33810;SDS011;20119;48.334;16.206;2024-01-30T03:59:42;47.78;;;30.83;;
33810;SDS011;20119;48.334;16.206;2024-01-30T04:02:09;49.95;;;32.15;;
33810;SDS011;20119;48.334;16.206;2024-01-30T04:12:25;50.28;;;31.63;;
33810;SDS011;20119;48.334;16.206;2024-01-30T04:14:53;47.22;;;31.40;;
33810;SDS011;20119;48.334;16.206;2024-01-30T04:17:20;53.58;;;33.22;;
33810;SDS011;20119;48.334;16.206;2024-01-30T04:22:23;50.90;;;32.88;;
33810;SDS011;20119;48.334;16.206;2024-01-30T04:27:27;52.92;;;33.88;;
33810;SDS011;20119;48.334;16.206;2024-01-30T04:29:54;51.58;;;33.53;;
33810;SDS011;20119;48.334;16.206;2024-01-30T04:32:21;54.50;;;34.15;;
33810;SDS011;20119;48.334;16.206;2024-01-30T04:37:24;54.85;;;38.10;;
33810;SDS011;20119;48.334;16.206;2024-01-30T04:47:38;58.92;;;36.30;;
33810;SDS011;20119;48.334;16.206;2024-01-30T04:52:41;56.45;;;35.25;;
33810;SDS011;20119;48.334;16.206;2024-01-30T04:55:09;51.90;;;34.90;;
33810;SDS011;20119;48.334;16.206;2024-01-30T04:57:36;56.70;;;36.95;;
33810;SDS011;20119;48.334;16.206;2024-01-30T05:05:16;75.25;;;49.97;;
33810;SDS011;20119;48.334;16.206;2024-01-30T05:07:49;57.72;;;38.20;;
33810;SDS011;20119;48.334;16.206;2024-01-30T05:10:16;42.45;;;26.52;;
33810;SDS011;20119;48.334;16.206;2024-01-30T05:12:43;52.80;;;35.60;;
33810;SDS011;20119;48.334;16.206;2024-01-30T05:17:46;53.55;;;36.83;;
33810;SDS011;20119;48.334;16.206;2024-01-30T05:22:51;55.28;;;35.92;;
33810;SDS011;20119;48.334;16.206;2024-01-30T05:27:54;59.03;;;35.80;;
33810;SDS011;20119;48.334;16.206;2024-01-30T05:30:21;55.78;;;36.53;;
33810;SDS011;20119;48.334;16.206;2024-01-30T05:32:48;51.97;;;36.30;;
33810;SDS011;20119;48.334;16.206;2024-01-30T05:35:16;56.85;;;37.90;;
33810;SDS011;20119;48.334;16.206;2024-01-30T05:37:42;55.65;;;37.55;;
33810;SDS011;20119;48.334;16.206;2024-01-30T05:42:48;60.47;;;37.63;;
33810;SDS011;20119;48.334;16.206;2024-01-30T05:45:16;58.95;;;38.40;;
33810;SDS011;20119;48.334;16.206;2024-01-30T05:47:43;54.80;;;36.78;;
33810;SDS011;20119;48.334;16.206;2024-01-30T05:50:10;58.80;;;38.63;;
33810;SDS011;20119;48.334;16.206;2024-01-30T05:52:37;58.85;;;38.20;;
33810;SDS011;20119;48.334;16.206;2024-01-30T06:00:18;58.95;;;37.40;;
33810;SDS011;20119;48.334;16.206;2024-01-30T06:02:45;63.83;;;40.00;;
33810;SDS011;20119;48.334;16.206;2024-01-30T06:05:12;58.85;;;38.92;;
33810;SDS011;20119;48.334;16.206;2024-01-30T06:07:39;61.53;;;41.33;;
33810;SDS011;20119;48.334;16.206;2024-01-30T06:10:07;68.93;;;41.45;;
33810;SDS011;20119;48.334;16.206;2024-01-30T06:15:10;63.30;;;42.03;;
33810;SDS011;20119;48.334;16.206;2024-01-30T06:17:40;60.20;;;40.53;;
33810;SDS011;20119;48.334;16.206;2024-01-30T06:22:43;67.57;;;43.70;;
33810;SDS011;20119;48.334;16.206;2024-01-30T06:27:46;67.80;;;46.10;;
33810;SDS011;20119;48.334;16.206;2024-01-30T06:30:13;72.90;;;47.80;;
33810;SDS011;20119;48.334;16.206;2024-01-30T06:32:43;68.68;;;47.20;;
33810;SDS011;20119;48.334;16.206;2024-01-30T06:35:10;70.78;;;47.85;;
33810;SDS011;20119;48.334;16.206;2024-01-30T06:37:37;76.82;;;47.80;;
33810;SDS011;20119;48.334;16.206;2024-01-30T06:40:05;69.22;;;47.97;;
33810;SDS011;20119;48.334;16.206;2024-01-30T06:47:47;72.15;;;47.47;;
33810;SDS011;20119;48.334;16.206;2024-01-30T06:55:26;72.53;;;47.38;;
33810;SDS011;20119;48.334;16.206;2024-01-30T06:57:53;69.72;;;48.20;;
33810;SDS011;20119;48.334;16.206;2024-01-30T07:00:21;69.60;;;48.53;;
33810;SDS011;20119;48.334;16.206;2024-01-30T07:02:50;65.40;;;45.83;;
33810;SDS011;20119;48.334;16.206;2024-01-30T07:05:17;66.97;;;47.20;;
33810;SDS011;20119;48.334;16.206;2024-01-30T07:07:44;67.38;;;46.60;;
33810;SDS011;20119;48.334;16.206;2024-01-30T07:12:47;66.57;;;43.65;;
33810;SDS011;20119;48.334;16.206;2024-01-30T07:15:14;65.65;;;46.25;;
33810;SDS011;20119;48.334;16.206;2024-01-30T07:17:42;65.88;;;45.33;;
33810;SDS011;20119;48.334;16.206;2024-01-30T07:20:11;60.85;;;43.63;;
33810;SDS011;20119;48.334;16.206;2024-01-30T07:22:38;61.20;;;42.90;;
33810;SDS011;20119;48.334;16.206;2024-01-30T07:25:06;59.88;;;42.72;;
33810;SDS011;20119;48.334;16.206;2024-01-30T07:30:10;56.83;;;39.75;;
33810;SDS011;20119;48.334;16.206;2024-01-30T07:35:14;53.92;;;37.95;;
33810;SDS011;20119;48.334;16.206;2024-01-30T07:40:12;54.67;;;36.85;;
33810;SDS011;20119;48.334;16.206;2024-01-30T07:42:40;53.25;;;36.10;;
33810;SDS011;20119;48.334;16.206;2024-01-30T07:45:10;51.85;;;35.60;;
33810;SDS011;20119;48.334;16.206;2024-01-30T07:52:50;46.70;;;32.53;;
33810;SDS011;20119;48.334;16.206;2024-01-30T07:55:19;45.95;;;30.80;;
33810;SDS011;20119;48.334;16.206;2024-01-30T07:57:49;43.60;;;30.83;;
33810;SDS011;20119;48.334;16.206;2024-01-30T08:00:17;45.70;;;30.40;;
33810;SDS011;20119;48.334;16.206;2024-01-30T08:02:45;40.33;;;29.60;;
33810;SDS011;20119;48.334;16.206;2024-01-30T08:05:12;41.03;;;29.35;;
33810;SDS011;20119;48.334;16.206;2024-01-30T08:07:40;44.13;;;29.15;;
33810;SDS011;20119;48.334;16.206;2024-01-30T08:10:10;39.13;;;29.33;;
33810;SDS011;20119;48.334;16.206;2024-01-30T08:12:38;37.15;;;27.58;;
33810;SDS011;20119;48.334;16.206;2024-01-30T08:15:05;35.30;;;26.85;;
33810;SDS011;20119;48.334;16.206;2024-01-30T08:20:08;36.15;;;27.17;;
33810;SDS011;20119;48.334;16.206;2024-01-30T08:22:37;35.55;;;26.90;;
33810;SDS011;20119;48.334;16.206;2024-01-30T08:25:05;38.50;;;27.02;;
33810;SDS011;20119;48.334;16.206;2024-01-30T08:27:36;36.92;;;26.00;;
33810;SDS011;20119;48.334;16.206;2024-01-30T08:30:04;38.20;;;26.90;;
33810;SDS011;20119;48.334;16.206;2024-01-30T08:32:31;35.65;;;26.65;;
33810;SDS011;20119;48.334;16.206;2024-01-30T08:40:10;32.83;;;25.40;;
33810;SDS011;20119;48.334;16.206;2024-01-30T08:42:39;32.83;;;25.30;;
33810;SDS011;20119;48.334;16.206;2024-01-30T08:52:31;33.05;;;24.77;;
33810;SDS011;20119;48.334;16.206;2024-01-30T08:57:35;32.53;;;25.55;;
33810;SDS011;20119;48.334;16.206;2024-01-30T09:00:04;34.53;;;24.98;;
33810;SDS011;20119;48.334;16.206;2024-01-30T09:02:31;34.92;;;26.92;;
33810;SDS011;20119;48.334;16.206;2024-01-30T09:04:58;36.95;;;26.52;;
33810;SDS011;20119;48.334;16.206;2024-01-30T09:07:26;35.38;;;27.20;;
33810;SDS011;20119;48.334;16.206;2024-01-30T09:12:29;36.95;;;29.17;;
33810;SDS011;20119;48.334;16.206;2024-01-30T09:14:56;42.17;;;31.00;;
33810;SDS011;20119;48.334;16.206;2024-01-30T09:24:57;38.58;;;29.83;;
33810;SDS011;20119;48.334;16.206;2024-01-30T09:27:25;40.05;;;30.85;;
33810;SDS011;20119;48.334;16.206;2024-01-30T09:29:52;46.08;;;31.92;;
33810;SDS011;20119;48.334;16.206;2024-01-30T09:34:55;43.28;;;31.48;;
33810;SDS011;20119;48.334;16.206;2024-01-30T09:37:22;46.88;;;33.72;;
33810;SDS011;20119;48.334;16.206;2024-01-30T09:42:28;43.10;;;31.27;;
33810;SDS011;20119;48.334;16.206;2024-01-30T09:44:55;45.47;;;32.22;;
33810;SDS011;20119;48.334;16.206;2024-01-30T09:47:23;46.75;;;32.08;;
33810;SDS011;20119;48.334;16.206;2024-01-30T10:02:55;47.40;;;33.28;;
33810;SDS011;20119;48.334;16.206;2024-01-30T10:05:22;48.20;;;33.95;;
33810;SDS011;20119;48.334;16.206;2024-01-30T10:07:59;48.53;;;34.13;;
33810;SDS011;20119;48.334;16.206;2024-01-30T10:10:26;48.78;;;33.58;;
33810;SDS011;20119;48.334;16.206;2024-01-30T10:12:53;48.00;;;33.33;;
33810;SDS011;20119;48.334;16.206;2024-01-30T10:15:20;47.83;;;33.35;;
33810;SDS011;20119;48.334;16.206;2024-01-30T10:17:49;49.83;;;33.47;;
33810;SDS011;20119;48.334;16.206;2024-01-30T10:20:17;54.05;;;34.45;;
33810;SDS011;20119;48.334;16.206;2024-01-30T10:22:45;50.17;;;34.03;;
33810;SDS011;20119;48.334;16.206;2024-01-30T10:25:12;46.67;;;33.58;;
33810;SDS011;20119;48.334;16.206;2024-01-30T10:30:17;50.08;;;34.63;;
33810;SDS011;20119;48.334;16.206;2024-01-30T10:32:44;54.20;;;34.03;;
33810;SDS011;20119;48.334;16.206;2024-01-30T10:35:11;52.42;;;35.17;;
33810;SDS011;20119;48.334;16.206;2024-01-30T10:37:41;51.55;;;33.92;;
33810;SDS011;20119;48.334;16.206;2024-01-30T10:40:11;49.42;;;33.00;;
33810;SDS011;20119;48.334;16.206;2024-01-30T10:42:42;48.38;;;33.00;;
33810;SDS011;20119;48.334;16.206;2024-01-30T10:45:10;52.95;;;34.50;;
33810;SDS011;20119;48.334;16.206;2024-01-30T10:52:50;48.40;;;33.17;;
33810;SDS011;20119;48.334;16.206;2024-01-30T10:57:53;50.10;;;33.92;;
33810;SDS011;20119;48.334;16.206;2024-01-30T11:08:12;47.30;;;33.25;;
33810;SDS011;20119;48.334;16.206;2024-01-30T11:10:48;50.42;;;33.47;;
33810;SDS011;20119;48.334;16.206;2024-01-30T11:15:44;52.28;;;34.30;;
33810;SDS011;20119;48.334;16.206;2024-01-30T11:18:11;51.38;;;35.08;;
33810;SDS011;20119;48.334;16.206;2024-01-30T11:20:38;50.40;;;34.45;;
33810;SDS011;20119;48.334;16.206;2024-01-30T11:23:11;53.65;;;34.92;;
33810;SDS011;20119;48.334;16.206;2024-01-30T11:25:39;49.05;;;34.85;;
33810;SDS011;20119;48.334;16.206;2024-01-30T11:28:06;49.90;;;35.10;;
33810;SDS011;20119;48.334;16.206;2024-01-30T11:30:40;47.00;;;34.08;;
33810;SDS011;20119;48.334;16.206;2024-01-30T11:33:12;50.88;;;33.58;;
33810;SDS011;20119;48.334;16.206;2024-01-30T11:35:40;50.55;;;34.13;;
33810;SDS011;20119;48.334;16.206;2024-01-30T11:38:09;47.08;;;33.95;;
33810;SDS011;20119;48.334;16.206;2024-01-30T11:40:38;47.75;;;33.53;;
33810;SDS011;20119;48.334;16.206;2024-01-30T11:43:06;48.13;;;34.15;;
33810;SDS011;20119;48.334;16.206;2024-01-30T11:48:09;52.33;;;35.85;;
33810;SDS011;20119;48.334;16.206;2024-01-30T11:50:39;53.88;;;36.28;;
33810;SDS011;20119;48.334;16.206;2024-01-30T11:53:06;51.67;;;35.65;;
33810;SDS011;20119;48.334;16.206;2024-01-30T11:55:34;53.28;;;36.80;;
33810;SDS011;20119;48.334;16.206;2024-01-30T12:00:39;52.78;;;35.85;;
33810;SDS011;20119;48.334;16.206;2024-01-30T12:03:07;52.92;;;36.75;;
33810;SDS011;20119;48.334;16.206;2024-01-30T12:05:34;52.78;;;36.30;;
33810;SDS011;20119;48.334;16.206;2024-01-30T12:08:04;51.97;;;36.25;;
33810;SDS011;20119;48.334;16.206;2024-01-30T12:10:32;55.50;;;36.50;;
33810;SDS011;20119;48.334;16.206;2024-01-30T12:13:00;53.90;;;36.78;;
33810;SDS011;20119;48.334;16.206;2024-01-30T12:15:28;54.17;;;35.80;;
33810;SDS011;20119;48.334;16.206;2024-01-30T12:20:33;50.72;;;34.80;;
33810;SDS011;20119;48.334;16.206;2024-01-30T12:23:00;54.55;;;35.13;;
33810;SDS011;20119;48.334;16.206;2024-01-30T12:27:58;51.22;;;36.10;;
33810;SDS011;20119;48.334;16.206;2024-01-30T12:30:25;52.65;;;34.80;;
33810;SDS011;20119;48.334;16.206;2024-01-30T12:32:53;55.13;;;35.65;;
33810;SDS011;20119;48.334;16.206;2024-01-30T12:35:21;50.22;;;35.85;;
33810;SDS011;20119;48.334;16.206;2024-01-30T12:40:25;55.88;;;35.53;;
33810;SDS011;20119;48.334;16.206;2024-01-30T12:48:15;55.47;;;35.60;;
33810;SDS011;20119;48.334;16.206;2024-01-30T12:50:42;53.35;;;35.35;;
33810;SDS011;20119;48.334;16.206;2024-01-30T12:53:09;54.13;;;35.80;;
33810;SDS011;20119;48.334;16.206;2024-01-30T12:55:39;57.50;;;36.42;;
33810;SDS011;20119;48.334;16.206;2024-01-30T12:58:06;48.78;;;35.72;;
33810;SDS011;20119;48.334;16.206;2024-01-30T13:03:01;54.67;;;36.97;;
33810;SDS011;20119;48.334;16.206;2024-01-30T13:05:29;54.85;;;36.78;;
33810;SDS011;20119;48.334;16.206;2024-01-30T13:07:56;52.80;;;37.90;;
33810;SDS011;20119;48.334;16.206;2024-01-30T13:15:36;56.03;;;38.17;;
33810;SDS011;20119;48.334;16.206;2024-01-30T13:18:03;51.67;;;36.45;;
33810;SDS011;20119;48.334;16.206;2024-01-30T13:23:07;54.45;;;37.35;;
33810;SDS011;20119;48.334;16.206;2024-01-30T13:36:11;52.88;;;36.22;;
33810;SDS011;20119;48.334;16.206;2024-01-30T13:38:39;58.15;;;37.22;;
33810;SDS011;20119;48.334;16.206;2024-01-30T13:41:06;53.97;;;37.53;;
33810;SDS011;20119;48.334;16.206;2024-01-30T13:46:09;58.42;;;38.20;;
33810;SDS011;20119;48.334;16.206;2024-01-30T13:48:37;58.63;;;39.50;;
33810;SDS011;20119;48.334;16.206;2024-01-30T13:56:16;55.67;;;38.80;;
33810;SDS011;20119;48.334;16.206;2024-01-30T14:01:19;56.92;;;38.88;;
33810;SDS011;20119;48.334;16.206;2024-01-30T14:03:49;59.85;;;39.88;;
33810;SDS011;20119;48.334;16.206;2024-01-30T14:11:29;56.67;;;39.22;;
33810;SDS011;20119;48.334;16.206;2024-01-30T14:13:56;61.65;;;40.50;;
33810;SDS011;20119;48.334;16.206;2024-01-30T14:16:24;57.60;;;40.58;;
33810;SDS011;20119;48.334;16.206;2024-01-30T14:18:51;57.22;;;39.58;;
33810;SDS011;20119;48.334;16.206;2024-01-30T14:21:19;57.33;;;39.63;;
33810;SDS011;20119;48.334;16.206;2024-01-30T14:23:46;58.75;;;40.70;;
33810;SDS011;20119;48.334;16.206;2024-01-30T14:28:43;61.67;;;40.38;;
33810;SDS011;20119;48.334;16.206;2024-01-30T14:33:39;66.30;;;42.63;;
33810;SDS011;20119;48.334;16.206;2024-01-30T14:36:09;62.45;;;40.78;;
33810;SDS011;20119;48.334;16.206;2024-01-30T14:41:12;63.53;;;41.40;;
33810;SDS011;20119;48.334;16.206;2024-01-30T14:43:39;61.03;;;40.30;;
33810;SDS011;20119;48.334;16.206;2024-01-30T14:46:09;65.00;;;41.50;;
33810;SDS011;20119;48.334;16.206;2024-01-30T14:48:36;61.35;;;40.85;;
33810;SDS011;20119;48.334;16.206;2024-01-30T15:03:51;67.15;;;41.95;;
33810;SDS011;20119;48.334;16.206;2024-01-30T15:06:27;66.05;;;44.22;;
33810;SDS011;20119;48.334;16.206;2024-01-30T15:08:54;63.80;;;43.10;;
33810;SDS011;20119;48.334;16.206;2024-01-30T15:16:33;71.47;;;45.33;;
33810;SDS011;20119;48.334;16.206;2024-01-30T15:21:31;68.25;;;45.63;;
33810;SDS011;20119;48.334;16.206;2024-01-30T15:23:58;74.38;;;45.65;;
33810;SDS011;20119;48.334;16.206;2024-01-30T15:29:01;73.72;;;46.28;;
33810;SDS011;20119;48.334;16.206;2024-01-30T15:39:12;74.03;;;47.55;;
33810;SDS011;20119;48.334;16.206;2024-01-30T15:44:16;72.45;;;47.40;;
33810;SDS011;20119;48.334;16.206;2024-01-30T15:46:43;74.32;;;46.78;;
33810;SDS011;20119;48.334;16.206;2024-01-30T15:49:10;71.50;;;46.63;;
33810;SDS011;20119;48.334;16.206;2024-01-30T15:51:37;82.18;;;49.35;;
33810;SDS011;20119;48.334;16.206;2024-01-30T15:54:05;78.50;;;48.15;;
33810;SDS011;20119;48.334;16.206;2024-01-30T15:59:09;81.45;;;47.97;;
33810;SDS011;20119;48.334;16.206;2024-01-30T16:01:36;81.95;;;49.47;;
33810;SDS011;20119;48.334;16.206;2024-01-30T16:04:05;79.05;;;50.15;;
33810;SDS011;20119;48.334;16.206;2024-01-30T16:06:32;80.88;;;50.30;;
33810;SDS011;20119;48.334;16.206;2024-01-30T16:09:03;85.38;;;52.72;;
33810;SDS011;20119;48.334;16.206;2024-01-30T16:11:30;82.00;;;51.75;;
33810;SDS011;20119;48.334;16.206;2024-01-30T16:16:27;90.30;;;53.65;;
33810;SDS011;20119;48.334;16.206;2024-01-30T16:21:31;86.30;;;52.72;;
33810;SDS011;20119;48.334;16.206;2024-01-30T16:23:59;85.93;;;52.90;;
33810;SDS011;20119;48.334;16.206;2024-01-30T16:29:02;90.57;;;55.00;;
33810;SDS011;20119;48.334;16.206;2024-01-30T16:31:30;90.45;;;54.78;;
33810;SDS011;20119;48.334;16.206;2024-01-30T16:33:57;92.05;;;55.65;;
33810;SDS011;20119;48.334;16.206;2024-01-30T16:38:54;103.82;;;59.03;;
33810;SDS011;20119;48.334;16.206;2024-01-30T16:41:22;96.82;;;57.30;;
33810;SDS011;20119;48.334;16.206;2024-01-30T16:43:50;97.70;;;57.78;;
33810;SDS011;20119;48.334;16.206;2024-01-30T16:46:18;94.50;;;57.90;;
33810;SDS011;20119;48.334;16.206;2024-01-30T16:53:59;101.83;;;60.77;;
33810;SDS011;20119;48.334;16.206;2024-01-30T16:58:54;110.07;;;61.95;;
33810;SDS011;20119;48.334;16.206;2024-01-30T17:01:22;118.10;;;65.32;;
33810;SDS011;20119;48.334;16.206;2024-01-30T17:09:03;129.13;;;68.15;;
33810;SDS011;20119;48.334;16.206;2024-01-30T17:11:30;130.10;;;67.10;;
33810;SDS011;20119;48.334;16.206;2024-01-30T17:13:57;151.57;;;67.90;;
33810;SDS011;20119;48.334;16.206;2024-01-30T17:16:25;147.23;;;70.28;;
33810;SDS011;20119;48.334;16.206;2024-01-30T17:21:28;142.60;;;70.75;;
33810;SDS011;20119;48.334;16.206;2024-01-30T17:26:30;130.95;;;68.57;;
33810;SDS011;20119;48.334;16.206;2024-01-30T17:28:58;140.45;;;69.57;;
33810;SDS011;20119;48.334;16.206;2024-01-30T17:31:25;174.95;;;70.10;;
33810;SDS011;20119;48.334;16.206;2024-01-30T17:33:53;156.95;;;68.47;;
33810;SDS011;20119;48.334;16.206;2024-01-30T17:38:56;143.57;;;70.70;;
33810;SDS011;20119;48.334;16.206;2024-01-30T17:41:25;148.63;;;72.15;;
33810;SDS011;20119;48.334;16.206;2024-01-30T17:43:54;178.93;;;72.43;;
33810;SDS011;20119;48.334;16.206;2024-01-30T17:46:21;163.23;;;72.20;;
33810;SDS011;20119;48.334;16.206;2024-01-30T17:48:48;184.13;;;69.97;;
33810;SDS011;20119;48.334;16.206;2024-01-30T17:51:15;160.40;;;70.35;;
33810;SDS011;20119;48.334;16.206;2024-01-30T17:53:43;160.52;;;69.90;;
33810;SDS011;20119;48.334;16.206;2024-01-30T17:56:10;175.88;;;71.25;;
33810;SDS011;20119;48.334;16.206;2024-01-30T17:58:37;147.88;;;70.78;;
33810;SDS011;20119;48.334;16.206;2024-01-30T18:01:07;203.18;;;69.07;;
33810;SDS011;20119;48.334;16.206;2024-01-30T18:03:36;205.45;;;64.05;;
33810;SDS011;20119;48.334;16.206;2024-01-30T18:08:39;150.65;;;67.15;;
33810;SDS011;20119;48.334;16.206;2024-01-30T18:13:35;181.88;;;67.38;;
33810;SDS011;20119;48.334;16.206;2024-01-30T18:16:03;131.45;;;65.13;;
33810;SDS011;20119;48.334;16.206;2024-01-30T18:26:14;453.08;;;71.10;;
33810;SDS011;20119;48.334;16.206;2024-01-30T18:28:42;259.38;;;68.22;;
33810;SDS011;20119;48.334;16.206;2024-01-30T18:31:10;462.33;;;71.30;;
33810;SDS011;20119;48.334;16.206;2024-01-30T18:33:37;242.50;;;68.43;;
33810;SDS011;20119;48.334;16.206;2024-01-30T18:36:05;225.80;;;66.90;;
33810;SDS011;20119;48.334;16.206;2024-01-30T18:38:33;197.68;;;68.10;;
33810;SDS011;20119;48.334;16.206;2024-01-30T18:41:00;298.73;;;72.13;;
33810;SDS011;20119;48.334;16.206;2024-01-30T18:46:02;378.60;;;72.13;;
33810;SDS011;20119;48.334;16.206;2024-01-30T18:48:30;370.35;;;72.20;;
33810;SDS011;20119;48.334;16.206;2024-01-30T18:58:37;183.40;;;71.63;;
33810;SDS011;20119;48.334;16.206;2024-01-30T19:01:06;188.55;;;71.25;;
33810;SDS011;20119;48.334;16.206;2024-01-30T19:03:39;208.68;;;82.60;;
33810;SDS011;20119;48.334;16.206;2024-01-30T19:06:09;197.38;;;73.93;;
33810;SDS011;20119;48.334;16.206;2024-01-30T19:11:05;179.25;;;72.35;;
33810;SDS011;20119;48.334;16.206;2024-01-30T19:13:32;468.50;;;79.20;;
33810;SDS011;20119;48.334;16.206;2024-01-30T19:16:00;278.42;;;77.00;;
33810;SDS011;20119;48.334;16.206;2024-01-30T19:18:29;176.75;;;73.05;;
33810;SDS011;20119;48.334;16.206;2024-01-30T19:23:29;162.52;;;71.63;;
33810;SDS011;20119;48.334;16.206;2024-01-30T19:28:29;195.25;;;70.18;;
33810;SDS011;20119;48.334;16.206;2024-01-30T19:30:57;164.07;;;72.50;;
33810;SDS011;20119;48.334;16.206;2024-01-30T19:33:25;196.25;;;75.15;;
33810;SDS011;20119;48.334;16.206;2024-01-30T19:38:30;150.85;;;73.63;;
33810;SDS011;20119;48.334;16.206;2024-01-30T19:40:58;150.25;;;77.28;;
33810;SDS011;20119;48.334;16.206;2024-01-30T19:43:25;142.65;;;77.38;;
33810;SDS011;20119;48.334;16.206;2024-01-30T19:45:52;177.13;;;78.60;;
33810;SDS011;20119;48.334;16.206;2024-01-30T19:48:20;232.45;;;81.97;;
33810;SDS011;20119;48.334;16.206;2024-01-30T19:50:48;211.95;;;80.90;;
33810;SDS011;20119;48.334;16.206;2024-01-30T19:53:16;159.13;;;79.53;;
33810;SDS011;20119;48.334;16.206;2024-01-30T19:55:47;175.27;;;82.90;;
33810;SDS011;20119;48.334;16.206;2024-01-30T19:58:14;199.05;;;80.47;;
33810;SDS011;20119;48.334;16.206;2024-01-30T20:00:41;169.88;;;82.45;;
33810;SDS011;20119;48.334;16.206;2024-01-30T20:03:09;166.48;;;80.25;;
33810;SDS011;20119;48.334;16.206;2024-01-30T20:05:36;193.70;;;86.00;;
33810;SDS011;20119;48.334;16.206;2024-01-30T20:08:03;164.68;;;79.60;;
33810;SDS011;20119;48.334;16.206;2024-01-30T20:10:31;168.93;;;82.95;;
33810;SDS011;20119;48.334;16.206;2024-01-30T20:12:59;158.73;;;80.53;;
33810;SDS011;20119;48.334;16.206;2024-01-30T20:17:58;143.13;;;80.18;;
33810;SDS011;20119;48.334;16.206;2024-01-30T20:20:25;154.68;;;87.10;;
33810;SDS011;20119;48.334;16.206;2024-01-30T20:25:28;147.30;;;81.80;;
33810;SDS011;20119;48.334;16.206;2024-01-30T20:27:55;136.05;;;79.40;;
33810;SDS011;20119;48.334;16.206;2024-01-30T20:30:26;141.23;;;79.18;;
33810;SDS011;20119;48.334;16.206;2024-01-30T20:38:05;132.63;;;76.57;;
33810;SDS011;20119;48.334;16.206;2024-01-30T20:40:32;130.60;;;78.75;;
33810;SDS011;20119;48.334;16.206;2024-01-30T20:43:00;133.25;;;80.72;;
33810;SDS011;20119;48.334;16.206;2024-01-30T20:45:28;133.27;;;78.53;;
33810;SDS011;20119;48.334;16.206;2024-01-30T20:47:56;152.35;;;85.38;;
33810;SDS011;20119;48.334;16.206;2024-01-30T20:50:23;147.40;;;84.53;;
33810;SDS011;20119;48.334;16.206;2024-01-30T20:52:50;145.45;;;85.13;;
33810;SDS011;20119;48.334;16.206;2024-01-30T20:55:17;126.20;;;78.50;;
33810;SDS011;20119;48.334;16.206;2024-01-30T21:00:21;123.60;;;75.22;;
33810;SDS011;20119;48.334;16.206;2024-01-30T21:02:50;115.75;;;73.57;;
33810;SDS011;20119;48.334;16.206;2024-01-30T21:05:17;122.70;;;76.57;;